createdAt,value
2022-11-15T00:02:05.844Z,84.38
2022-11-15T00:05:26.917Z,83.74
2022-11-15T00:08:47.680Z,84.18
2022-11-15T00:12:08.869Z,84.45
2022-11-15T00:15:29.563Z,85.01
2022-11-15T00:18:55.146Z,85.65
2022-11-15T00:22:15.770Z,85.68
2022-11-15T00:25:37.275Z,85.68
2022-11-15T00:28:58.524Z,85.43
2022-11-15T00:32:19.695Z,85.50
2022-11-15T00:35:41.994Z,85.11
2022-11-15T00:39:06.833Z,85.34
2022-11-15T00:42:28.946Z,85.00
2022-11-15T00:45:50.774Z,85.24
2022-11-15T00:49:11.394Z,85.04
2022-11-15T00:52:32.533Z,84.97
2022-11-15T00:55:53.718Z,84.36
2022-11-15T00:59:16.595Z,84.57
2022-11-15T01:02:37.534Z,85.43
2022-11-15T01:06:01.331Z,85.42
2022-11-15T01:09:23.090Z,85.42
2022-11-15T01:12:43.743Z,85.86
2022-11-15T01:16:13.853Z,85.88
2022-11-15T01:19:34.517Z,85.84
2022-11-15T01:22:55.654Z,85.99
2022-11-15T01:26:17.208Z,86.21
2022-11-15T01:29:37.645Z,85.73
2022-11-15T01:32:58.930Z,85.73
2022-11-15T01:36:23.276Z,85.20
2022-11-15T01:39:43.739Z,85.98
2022-11-15T01:43:31.483Z,85.36
2022-11-15T01:46:52.814Z,85.24
2022-11-15T01:50:22.163Z,84.84
2022-11-15T01:53:47.462Z,85.87
2022-11-15T01:57:11.805Z,85.86
2022-11-15T02:00:33.107Z,86.02
2022-11-15T02:04:07.050Z,85.73
2022-11-15T02:07:27.895Z,85.88
2022-11-15T02:10:48.342Z,86.09
2022-11-15T02:14:11.449Z,86.09
2022-11-15T02:17:50.886Z,85.66
2022-11-15T02:21:30.965Z,85.01
2022-11-15T02:25:33.690Z,84.84
2022-11-15T02:29:11.927Z,85.23
2022-11-15T02:32:33.473Z,84.89
2022-11-15T02:36:01.201Z,84.71
2022-11-15T02:39:46.211Z,84.27
2022-11-15T02:43:30.442Z,85.04
2022-11-15T02:47:13.843Z,85.42
2022-11-15T02:50:35.507Z,84.78
2022-11-15T02:53:56.339Z,84.99
2022-11-15T02:57:20.064Z,84.45
2022-11-15T03:00:55.423Z,84.62
2022-11-15T03:04:45.175Z,84.82
2022-11-15T03:08:44.106Z,84.32
2022-11-15T03:12:22.628Z,84.22
2022-11-15T03:15:56.407Z,83.92
2022-11-15T03:19:37.547Z,83.77
2022-11-15T03:23:12.175Z,83.91
2022-11-15T03:26:34.828Z,83.54
2022-11-15T03:30:03.474Z,84.14
2022-11-15T03:33:24.836Z,84.17
2022-11-15T03:36:47.029Z,84.15
2022-11-15T03:40:09.720Z,84.11
2022-11-15T03:43:58.186Z,83.52
2022-11-15T03:47:27.946Z,83.60
2022-11-15T03:50:49.633Z,82.96
2022-11-15T03:54:10.570Z,83.11
2022-11-15T03:57:31.409Z,82.67
2022-11-15T04:00:53.479Z,82.78
2022-11-15T04:04:14.313Z,82.71
2022-11-15T04:07:34.768Z,82.77
2022-11-15T04:10:55.994Z,82.67
2022-11-15T04:14:16.958Z,82.32
2022-11-15T04:17:50.898Z,82.56
2022-11-15T04:21:30.295Z,83.27
2022-11-15T04:24:50.673Z,79.67
2022-11-15T04:28:12.603Z,74.64
2022-11-15T04:31:33.679Z,73.93
2022-11-15T04:34:54.195Z,71.08
2022-11-15T04:38:14.605Z,67.73
2022-11-15T04:41:35.384Z,64.96
2022-11-15T04:44:57.029Z,65.83
2022-11-15T04:48:17.957Z,63.05
2022-11-15T04:51:38.730Z,62.81
2022-11-15T04:55:03.588Z,64.25
2022-11-15T04:58:31.415Z,62.46
2022-11-15T05:01:51.970Z,65.35
2022-11-15T05:05:12.671Z,69.06
2022-11-15T05:08:33.880Z,72.57
2022-11-15T05:11:55.042Z,73.39
2022-11-15T05:15:15.969Z,75.37
2022-11-15T05:18:36.974Z,77.49
2022-11-15T05:21:58.836Z,74.48
2022-11-15T05:25:19.760Z,76.62
2022-11-15T05:28:40.460Z,78.91
2022-11-15T05:32:01.143Z,80.82
2022-11-15T05:35:32.650Z,80.28
2022-11-15T05:38:54.486Z,81.06
2022-11-15T05:42:19.161Z,76.97
2022-11-15T05:45:39.965Z,74.82
2022-11-15T05:49:01.342Z,75.57
2022-11-15T05:52:27.039Z,73.18
2022-11-15T05:55:48.436Z,72.78
2022-11-15T05:59:13.374Z,72.01
2022-11-15T06:02:35.308Z,71.90
2022-11-15T06:05:57.301Z,72.52
2022-11-15T06:09:18.791Z,73.04
2022-11-15T06:12:40.544Z,76.29
2022-11-15T06:16:02.659Z,76.73
2022-11-15T06:19:23.159Z,77.08
2022-11-15T06:22:44.746Z,78.36
2022-11-15T06:26:05.446Z,78.63
2022-11-15T06:29:26.984Z,78.36
2022-11-15T06:32:48.914Z,79.43
2022-11-15T06:36:17.418Z,79.44
2022-11-15T06:39:39.873Z,79.45
2022-11-15T06:43:00.854Z,79.71
2022-11-15T06:46:21.656Z,79.55
2022-11-15T06:49:42.260Z,78.80
2022-11-15T06:53:04.669Z,77.95
2022-11-15T06:56:26.251Z,77.13
2022-11-15T06:59:47.879Z,77.95
2022-11-15T07:03:09.340Z,77.04
2022-11-15T07:06:30.299Z,76.58
2022-11-15T07:09:51.895Z,76.03
2022-11-15T07:13:12.865Z,74.44
2022-11-15T07:16:33.485Z,68.93
2022-11-15T07:19:54.477Z,62.24
2022-11-15T07:23:15.195Z,57.19
2022-11-15T07:26:37.329Z,54.05
2022-11-15T07:29:59.486Z,52.50
2022-11-15T07:33:21.385Z,51.80
2022-11-15T07:36:43.095Z,51.93
2022-11-15T07:40:04.179Z,50.79
2022-11-15T07:43:24.869Z,50.85
2022-11-15T07:46:45.176Z,50.44
2022-11-15T07:50:09.474Z,49.78
2022-11-15T07:53:30.424Z,50.09
2022-11-15T07:56:52.518Z,48.85
2022-11-15T08:00:14.155Z,49.54
2022-11-15T08:03:35.448Z,49.25
2022-11-15T08:06:56.542Z,48.81
2022-11-15T08:10:20.184Z,48.75
2022-11-15T08:13:40.868Z,48.66
2022-11-15T08:17:01.511Z,48.94
2022-11-15T08:20:21.998Z,48.85
2022-11-15T08:23:42.585Z,48.64
2022-11-15T08:27:02.964Z,48.12
2022-11-15T08:30:24.456Z,50.88
2022-11-15T08:33:46.226Z,56.15
2022-11-15T08:37:07.442Z,55.00
2022-11-15T08:40:28.189Z,57.20
2022-11-15T08:43:52.387Z,58.82
2022-11-15T08:47:14.757Z,61.93
2022-11-15T08:50:35.848Z,63.06
2022-11-15T08:53:57.054Z,63.17
2022-11-15T08:57:17.812Z,64.50
2022-11-15T09:00:38.322Z,63.81
2022-11-15T09:03:59.672Z,64.81
2022-11-15T09:07:20.504Z,67.11
2022-11-15T09:10:41.396Z,66.44
2022-11-15T09:14:02.206Z,64.97
2022-11-15T09:17:24.977Z,66.53
2022-11-15T09:20:45.980Z,67.62
2022-11-15T09:24:07.071Z,63.07
2022-11-15T09:27:31.115Z,65.63
2022-11-15T09:30:51.563Z,64.93
2022-11-15T09:34:13.090Z,64.36
2022-11-15T09:37:34.024Z,61.87
2022-11-15T09:41:14.757Z,61.84
2022-11-15T09:44:55.578Z,60.17
2022-11-15T09:48:50.002Z,61.21
2022-11-15T09:52:09.907Z,62.63
2022-11-15T09:55:15.762Z,61.08
2022-11-15T09:58:35.285Z,61.90
2022-11-15T10:02:13.604Z,62.08
2022-11-15T10:05:20.596Z,59.62
2022-11-15T10:08:36.098Z,62.17
2022-11-15T10:11:39.812Z,62.79
2022-11-15T10:14:43.708Z,59.85
2022-11-15T10:18:04.852Z,60.67
2022-11-15T10:21:38.940Z,62.19
2022-11-15T10:24:44.669Z,58.35
2022-11-15T10:28:18.439Z,60.69
2022-11-15T10:31:28.662Z,61.62
2022-11-15T10:34:36.970Z,58.33
2022-11-15T10:37:39.349Z,60.25
2022-11-15T10:40:44.802Z,61.31
2022-11-15T10:44:16.304Z,58.52
2022-11-15T10:47:37.872Z,58.30
2022-11-15T10:50:52.151Z,60.47
2022-11-15T10:54:00.812Z,62.37
2022-11-15T10:57:08.631Z,62.29
2022-11-15T11:00:11.335Z,62.94
2022-11-15T11:03:41.305Z,63.34
2022-11-15T11:07:00.856Z,64.08
2022-11-15T11:10:44.541Z,64.50
2022-11-15T11:13:42.584Z,64.31
2022-11-15T11:17:31.847Z,66.04
2022-11-15T11:20:35.974Z,66.52
2022-11-15T11:23:54.563Z,66.50
2022-11-15T11:27:27.385Z,66.73
2022-11-15T11:30:51.439Z,66.86
2022-11-15T11:33:59.861Z,67.30
2022-11-15T11:37:22.184Z,68.31
2022-11-15T11:40:33.996Z,68.75
2022-11-15T11:43:41.977Z,70.36
2022-11-15T11:46:44.322Z,70.51
2022-11-15T11:49:53.506Z,71.04
2022-11-15T11:53:04.180Z,71.84
2022-11-15T11:56:22.360Z,72.21
2022-11-15T11:59:32.825Z,71.94
2022-11-15T12:02:44.613Z,72.31
2022-11-15T12:05:58.885Z,72.12
2022-11-15T12:09:24.498Z,72.18
2022-11-15T12:12:27.076Z,72.41
2022-11-15T12:15:34.295Z,72.44
2022-11-15T12:18:36.866Z,72.33
2022-11-15T12:22:00.222Z,72.13
2022-11-15T12:25:25.361Z,72.41
2022-11-15T12:29:06.506Z,72.56
2022-11-15T12:32:24.602Z,72.54
2022-11-15T12:35:40.092Z,72.76
2022-11-15T12:38:54.914Z,72.81
2022-11-15T12:41:57.053Z,72.87
2022-11-15T12:45:00.292Z,72.29
2022-11-15T12:48:17.538Z,72.96
2022-11-15T12:51:44.063Z,72.43
2022-11-15T12:54:58.025Z,72.11
2022-11-15T12:58:39.627Z,72.28
2022-11-15T13:01:41.649Z,72.99
2022-11-15T13:04:43.723Z,72.23
2022-11-15T13:07:45.852Z,72.69
2022-11-15T13:10:47.955Z,72.79
2022-11-15T13:13:50.007Z,72.99
2022-11-15T13:17:00.322Z,72.67
2022-11-15T13:20:08.903Z,73.09
2022-11-15T13:23:16.743Z,73.02
2022-11-15T13:26:24.266Z,74.19
2022-11-15T13:29:30.335Z,73.71
2022-11-15T13:32:32.439Z,74.24
2022-11-15T13:35:38.284Z,74.47
2022-11-15T13:38:41.669Z,75.24
2022-11-15T13:41:50.450Z,75.07
2022-11-15T13:45:04.783Z,74.70
2022-11-15T13:48:09.453Z,75.33
2022-11-15T13:51:41.426Z,76.22
2022-11-15T13:54:57.176Z,76.22
2022-11-15T13:58:07.281Z,76.79
2022-11-15T14:01:18.339Z,77.25
2022-11-15T14:04:24.298Z,77.13
2022-11-15T14:07:29.816Z,77.16
2022-11-15T14:10:37.725Z,77.68
2022-11-15T14:13:40.015Z,77.45
2022-11-15T14:16:47.977Z,78.35
2022-11-15T14:19:50.955Z,77.60
2022-11-15T14:23:05.691Z,75.96
2022-11-15T14:26:34.932Z,75.74
2022-11-15T14:29:37.471Z,74.82
2022-11-15T14:32:49.002Z,73.83
2022-11-15T14:35:58.392Z,74.12
2022-11-15T14:39:01.476Z,73.13
2022-11-15T14:42:03.531Z,73.53
2022-11-15T14:45:14.808Z,73.93
2022-11-15T14:48:16.877Z,73.37
2022-11-15T14:51:19.458Z,73.98
2022-11-15T14:54:21.521Z,73.98
2022-11-15T14:57:23.687Z,74.21
2022-11-15T15:00:27.847Z,74.33
2022-11-15T15:03:32.971Z,74.14
2022-11-15T15:06:35.037Z,74.81
2022-11-15T15:09:37.323Z,74.75
2022-11-15T15:12:39.918Z,75.67
2022-11-15T15:15:42.318Z,75.75
2022-11-15T15:18:44.729Z,75.06
2022-11-15T15:21:46.900Z,74.93
2022-11-15T15:24:49.303Z,75.77
2022-11-15T15:27:51.600Z,73.79
2022-11-15T15:30:53.916Z,70.27
2022-11-15T15:33:56.062Z,70.68
2022-11-15T15:37:25.167Z,69.98
2022-11-15T15:40:30.149Z,70.49
2022-11-15T15:43:32.245Z,70.08
2022-11-15T15:46:36.589Z,69.97
2022-11-15T15:49:39.976Z,70.43
2022-11-15T15:52:42.098Z,70.56
2022-11-15T15:55:45.534Z,70.62
2022-11-15T15:58:48.309Z,69.81
2022-11-15T16:01:50.363Z,71.09
2022-11-15T16:04:53.828Z,71.03
2022-11-15T16:07:59.049Z,71.73
2022-11-15T16:11:01.244Z,74.43
2022-11-15T16:14:06.223Z,75.19
2022-11-15T16:17:16.975Z,76.35
2022-11-15T16:20:36.974Z,76.60
2022-11-15T16:23:39.142Z,76.79
2022-11-15T16:26:41.306Z,76.26
2022-11-15T16:29:45.608Z,76.43
2022-11-15T16:32:50.850Z,76.90
2022-11-15T16:35:54.926Z,76.90
2022-11-15T16:38:58.175Z,77.27
2022-11-15T16:42:06.221Z,79.49
2022-11-15T16:45:12.947Z,80.00
2022-11-15T16:48:28.969Z,79.00
2022-11-15T16:51:31.025Z,80.17
2022-11-15T16:54:35.738Z,79.64
2022-11-15T16:57:38.294Z,79.86
2022-11-15T17:00:41.401Z,79.45
2022-11-15T17:03:43.505Z,79.81
2022-11-15T17:06:47.730Z,79.30
2022-11-15T17:09:50.192Z,79.55
2022-11-15T17:12:53.346Z,79.27
2022-11-15T17:16:13.916Z,78.37
2022-11-15T17:19:21.943Z,79.01
2022-11-15T17:22:24.670Z,79.12
2022-11-15T17:25:26.775Z,79.11
2022-11-15T17:28:30.044Z,80.52
2022-11-15T17:31:34.675Z,79.87
2022-11-15T17:34:38.091Z,80.24
2022-11-15T17:37:41.583Z,79.93
2022-11-15T17:40:44.097Z,80.53
2022-11-15T17:43:48.823Z,80.41
2022-11-15T17:46:51.703Z,80.68
2022-11-15T17:49:54.138Z,81.24
2022-11-15T17:52:57.571Z,81.04
2022-11-15T17:56:04.817Z,81.37
2022-11-15T17:59:15.886Z,81.47
2022-11-15T18:02:21.158Z,82.21
2022-11-15T18:05:24.879Z,81.52
2022-11-15T18:08:29.497Z,81.24
2022-11-15T18:11:39.802Z,81.78
2022-11-15T18:14:43.048Z,81.73
2022-11-15T18:17:45.782Z,82.55
2022-11-15T18:20:49.839Z,82.17
2022-11-15T18:23:57.040Z,81.82
2022-11-15T18:27:00.754Z,82.51
2022-11-15T18:30:03.287Z,83.10
2022-11-15T18:33:05.389Z,82.76
2022-11-15T18:36:10.211Z,84.44
2022-11-15T18:39:16.952Z,84.70
2022-11-15T18:42:19.812Z,84.61
2022-11-15T18:45:24.323Z,84.60
2022-11-15T18:48:40.665Z,85.40
2022-11-15T18:51:43.228Z,85.70
2022-11-15T18:54:45.240Z,85.15
2022-11-15T18:57:47.471Z,85.95
2022-11-15T19:00:49.790Z,86.01
2022-11-15T19:03:55.277Z,86.66
2022-11-15T19:06:57.326Z,85.89
2022-11-15T19:09:59.353Z,85.53
2022-11-15T19:13:02.670Z,84.79
2022-11-15T19:16:05.801Z,84.59
2022-11-15T19:19:12.897Z,83.70
2022-11-15T19:22:14.950Z,84.08
2022-11-15T19:25:19.036Z,83.43
2022-11-15T19:28:21.188Z,83.15
2022-11-15T19:31:25.089Z,83.55
2022-11-15T19:34:27.335Z,82.56
2022-11-15T19:37:29.386Z,82.05
2022-11-15T19:40:33.530Z,82.91
2022-11-15T19:43:35.951Z,83.41
2022-11-15T19:46:39.099Z,82.61
2022-11-15T19:49:41.124Z,82.26
2022-11-15T19:52:43.638Z,81.89
2022-11-15T19:55:56.472Z,81.99
2022-11-15T19:58:58.768Z,82.52
2022-11-15T20:02:02.276Z,81.43
2022-11-15T20:05:05.049Z,80.59
2022-11-15T20:08:07.351Z,79.64
2022-11-15T20:11:09.866Z,79.92
2022-11-15T20:14:13.291Z,80.57
2022-11-15T20:17:15.435Z,79.96
2022-11-15T20:20:17.791Z,79.74
2022-11-15T20:23:19.865Z,79.57
2022-11-15T20:26:22.520Z,79.60
2022-11-15T20:29:24.690Z,79.82
2022-11-15T20:32:27.878Z,79.78
2022-11-15T20:35:30.863Z,78.96
2022-11-15T20:38:33.725Z,80.43
2022-11-15T20:41:35.916Z,79.81
2022-11-15T20:44:37.996Z,79.15
2022-11-15T20:47:40.175Z,79.85
2022-11-15T20:50:43.876Z,79.61
2022-11-15T20:53:47.182Z,79.49
2022-11-15T20:56:49.903Z,78.54
2022-11-15T20:59:51.935Z,78.41
2022-11-15T21:02:54.265Z,77.78
2022-11-15T21:05:56.498Z,78.16
2022-11-15T21:09:17.599Z,78.49
2022-11-15T21:12:19.781Z,77.95
2022-11-15T21:15:22.130Z,78.38
2022-11-15T21:18:24.780Z,78.19
2022-11-15T21:21:27.001Z,78.12
2022-11-15T21:24:30.074Z,77.95
2022-11-15T21:27:32.175Z,78.51
2022-11-15T21:30:39.640Z,77.78
2022-11-15T21:33:44.238Z,77.96
2022-11-15T21:36:47.241Z,78.08
2022-11-15T21:39:49.235Z,78.66
2022-11-15T21:42:51.434Z,79.35
2022-11-15T21:45:57.795Z,78.71
2022-11-15T21:49:00.393Z,78.63
2022-11-15T21:52:02.539Z,79.02
2022-11-15T21:55:04.748Z,79.39
2022-11-15T21:58:06.793Z,78.63
2022-11-15T22:01:30.278Z,79.32
2022-11-15T22:04:32.312Z,79.28
2022-11-15T22:07:34.358Z,79.97
2022-11-15T22:10:36.435Z,81.73
2022-11-15T22:13:38.642Z,83.21
2022-11-15T22:16:41.187Z,83.75
2022-11-15T22:19:52.254Z,83.93
2022-11-15T22:22:55.121Z,84.19
2022-11-15T22:25:57.860Z,88.21
2022-11-15T22:29:00.138Z,87.07
2022-11-15T22:32:03.244Z,85.59
2022-11-15T22:35:09.074Z,84.35
2022-11-15T22:38:11.394Z,83.68
2022-11-15T22:41:13.569Z,83.86
2022-11-15T22:44:15.695Z,83.59
2022-11-15T22:47:18.579Z,83.75
2022-11-15T22:50:21.092Z,83.33
2022-11-15T22:53:23.848Z,83.51
2022-11-15T22:56:25.994Z,83.17
2022-11-15T22:59:28.146Z,82.71
2022-11-15T23:02:30.555Z,83.55
2022-11-15T23:05:32.797Z,83.95
2022-11-15T23:08:35.009Z,83.81
2022-11-15T23:11:56.429Z,84.03
2022-11-15T23:14:58.756Z,84.61
2022-11-15T23:18:00.865Z,84.15
2022-11-15T23:21:39.086Z,84.09
2022-11-15T23:24:41.242Z,84.13
2022-11-15T23:27:44.021Z,83.80
2022-11-15T23:31:04.918Z,83.91
2022-11-15T23:34:09.619Z,84.47
2022-11-15T23:37:14.140Z,83.93
2022-11-15T23:40:16.422Z,83.25
2022-11-15T23:43:18.854Z,83.92
2022-11-15T23:46:21.018Z,84.21
2022-11-15T23:49:23.379Z,83.93
2022-11-15T23:52:26.447Z,84.21
2022-11-15T23:55:28.501Z,84.13
2022-11-15T23:58:30.871Z,84.36
